Time;durP1;ratioP1;P1;durP2;ratioP2;P2;SDS_P1;SDS_P2;PMS_P1;PMS_P2;Temp;Humidity;BMP_temperature;BMP_pressure;BME280_temperature;BME280_humidity;BME280_pressure;Samples;Min_cycle;Max_cycle;Signal;HPM_P1;HPM_P2
2022/05/04 00:01:28;;;;;;;;;;;14.30;77.50;;;;;;5074789;28;20431;-89
2022/05/04 00:03:54;;;;;;;;;;;14.30;76.60;;;;;;5075069;28;19935;-88
2022/05/04 00:06:19;;;;;;;;;;;14.30;76.90;;;;;;5075320;28;19954;-89
2022/05/04 00:08:47;;;;;;;;;;;14.30;76.20;;;;;;5074864;28;19945;-89
2022/05/04 00:11:13;;;;;;;;;;;14.40;75.90;;;;;;5074890;28;19938;-89
2022/05/04 00:13:38;;;;;;;;;;;14.40;76.00;;;;;;5074860;28;20419;-89
2022/05/04 00:16:04;;;;;;;;;;;14.30;76.70;;;;;;5075010;28;20419;-88
2022/05/04 00:18:30;;;;;;;;;;;14.30;76.60;;;;;;5074753;28;20387;-88
2022/05/04 00:20:56;;;;;;;;;;;14.30;77.50;;;;;;5074597;28;19964;-89
2022/05/04 00:23:21;;;;;;;;;;;14.10;78.00;;;;;;5074690;28;19933;-89
2022/05/04 00:25:47;;;;;;;;;;;14.00;78.70;;;;;;5074617;28;19941;-89
2022/05/04 00:28:13;;;;;;;;;;;13.90;79.40;;;;;;5074546;28;19990;-89
2022/05/04 00:30:38;;;;;;;;;;;13.80;80.00;;;;;;5074459;28;19993;-89
2022/05/04 00:33:04;;;;;;;;;;;13.60;80.10;;;;;;5074351;28;19941;-89
2022/05/04 00:35:29;;;;;;;;;;;13.60;79.20;;;;;;5081831;28;19932;-89
2022/05/04 00:37:55;;;;;;;;;;;13.50;78.30;;;;;;5094642;28;19937;-89
2022/05/04 00:40:20;;;;;;;;;;;13.60;77.80;;;;;;5094469;28;20000;-89
2022/05/04 00:42:46;;;;;;;;;;;13.60;77.20;;;;;;5094567;28;19986;-88
2022/05/04 00:45:11;;;;;;;;;;;13.60;77.80;;;;;;5093611;28;19943;-89
2022/05/04 00:47:37;;;;;;;;;;;13.60;78.20;;;;;;5094415;28;19929;-89
2022/05/04 00:50:04;;;;;;;;;;;13.60;78.30;;;;;;5094337;28;20401;-89
2022/05/04 00:52:30;;;;;;;;;;;13.60;78.70;;;;;;5094611;28;19932;-89
2022/05/04 00:54:56;;;;;;;;;;;13.60;78.90;;;;;;5094273;28;20291;-89
2022/05/04 00:58:54;;;;;;;;;;;13.60;79.30;;;;;;5094244;28;19941;-88
2022/05/04 01:00:08;;;;;;;;;;;13.60;79.20;;;;;;5093884;28;19975;-89
2022/05/04 01:02:33;;;;;;;;;;;13.50;78.80;;;;;;5094416;28;19957;-89
2022/05/04 01:04:59;;;;;;;;;;;13.50;78.70;;;;;;5090798;28;20399;-89
2022/05/04 01:07:24;;;;;;;;;;;13.50;80.60;;;;;;5074032;28;19984;-88
2022/05/04 01:09:50;;;;;;;;;;;13.30;81.10;;;;;;5073668;28;20008;-89
2022/05/04 01:12:21;;;;;;;;;;;13.20;81.30;;;;;;5073730;28;19919;-88
2022/05/04 01:14:46;;;;;;;;;;;13.00;81.90;;;;;;5073618;28;19912;-88
2022/05/04 01:17:12;;;;;;;;;;;12.80;82.00;;;;;;5073613;28;20496;-88
2022/05/04 01:19:37;;;;;;;;;;;12.70;81.50;;;;;;5073562;28;20407;-88
2022/05/04 01:22:03;;;;;;;;;;;12.60;80.90;;;;;;5073416;28;20458;-88
2022/05/04 01:24:29;;;;;;;;;;;12.50;81.30;;;;;;5073573;28;20353;-88
2022/05/04 01:26:54;;;;;;;;;;;12.60;81.50;;;;;;5073442;28;19997;-88
2022/05/04 01:29:20;;;;;;;;;;;12.60;81.60;;;;;;5073431;28;20310;-88
2022/05/04 01:31:45;;;;;;;;;;;12.70;81.50;;;;;;5073401;28;20393;-89
2022/05/04 01:34:11;;;;;;;;;;;12.70;81.40;;;;;;5079832;28;19933;-88
2022/05/04 01:36:36;;;;;;;;;;;12.80;81.60;;;;;;5093539;28;19944;-89
2022/05/04 01:39:02;;;;;;;;;;;12.90;81.30;;;;;;5093496;28;19955;-89
2022/05/04 01:44:12;;;;;;;;;;;13.00;80.30;;;;;;5093443;28;20435;-88
2022/05/04 01:46:37;;;;;;;;;;;13.00;80.10;;;;;;5093391;28;19974;-89
2022/05/04 01:49:03;;;;;;;;;;;12.90;80.50;;;;;;5093363;28;20415;-89
2022/05/04 01:51:28;;;;;;;;;;;12.90;80.90;;;;;;5093358;28;20297;-89
2022/05/04 01:53:54;;;;;;;;;;;12.80;81.70;;;;;;5093353;28;19957;-88
2022/05/04 01:56:19;;;;;;;;;;;12.80;82.60;;;;;;5093143;28;19924;-88
2022/05/04 01:58:45;;;;;;;;;;;12.80;83.30;;;;;;5093325;28;19943;-89
2022/05/04 02:01:11;;;;;;;;;;;12.70;83.80;;;;;;5092963;28;20021;-89
2022/05/04 02:03:37;;;;;;;;;;;12.60;84.70;;;;;;5092509;28;19941;-88
2022/05/04 02:06:03;;;;;;;;;;;12.40;84.70;;;;;;5093215;28;19951;-88
2022/05/04 02:08:29;;;;;;;;;;;12.30;84.30;;;;;;5093108;28;20313;-88
2022/05/04 02:13:01;;;;;;;;;;;12.30;83.60;;;;;;5111086;27;20443;-88
2022/05/04 02:15:27;;;;;;;;;;;12.40;83.10;;;;;;5111020;28;20032;-88
2022/05/04 02:17:52;;;;;;;;;;;12.40;82.90;;;;;;5111021;28;20144;-89
2022/05/04 02:20:18;;;;;;;;;;;12.40;82.30;;;;;;5111219;28;19931;-89
2022/05/04 02:22:43;;;;;;;;;;;12.40;82.30;;;;;;5110913;28;19934;-88
2022/05/04 02:25:09;;;;;;;;;;;12.50;82.40;;;;;;5111133;28;20340;-89
2022/05/04 02:27:34;;;;;;;;;;;12.50;82.50;;;;;;5110860;28;19908;-88
2022/05/04 02:30:00;;;;;;;;;;;12.50;82.40;;;;;;5110777;28;19931;-89
2022/05/04 02:32:25;;;;;;;;;;;12.50;82.40;;;;;;5110537;28;19970;-89
2022/05/04 02:40:19;;;;;;;;;;;12.70;81.60;;;;;;5090260;28;20461;-88
2022/05/04 02:42:46;;;;;;;;;;;12.80;81.70;;;;;;5090439;28;19924;-89
2022/05/04 02:45:12;;;;;;;;;;;12.70;81.50;;;;;;5090163;28;19934;-89
2022/05/04 02:47:38;;;;;;;;;;;12.80;81.50;;;;;;5090378;28;20013;-88
2022/05/04 02:50:04;;;;;;;;;;;12.80;81.70;;;;;;5090058;28;19947;-89
2022/05/04 02:52:30;;;;;;;;;;;12.80;81.70;;;;;;5090225;28;19948;-89
2022/05/04 02:54:55;;;;;;;;;;;12.80;81.30;;;;;;5089896;28;19957;-88
2022/05/04 02:57:21;;;;;;;;;;;12.80;81.60;;;;;;5089938;28;20028;-89
2022/05/04 02:59:46;;;;;;;;;;;12.80;82.00;;;;;;5089881;28;19965;-89
2022/05/04 03:02:27;;;;;;;;;;;12.70;82.10;;;;;;5089857;28;19949;-88
2022/05/04 03:04:59;;;;;;;;;;;12.40;82.00;;;;;;5105981;28;20413;-89
2022/05/04 03:07:26;;;;;;;;;;;12.30;82.60;;;;;;5110076;28;19918;-89
2022/05/04 03:09:52;;;;;;;;;;;12.00;83.10;;;;;;5097706;28;19957;-88
2022/05/04 03:12:18;;;;;;;;;;;11.80;83.80;;;;;;5089262;28;20017;-89
2022/05/04 03:14:44;;;;;;;;;;;11.80;84.50;;;;;;5089624;28;19939;-89
2022/05/04 03:17:09;;;;;;;;;;;11.90;84.70;;;;;;5089580;28;19997;-89
2022/05/04 03:19:35;;;;;;;;;;;12.00;84.60;;;;;;5089489;28;19922;-88
2022/05/04 03:22:01;;;;;;;;;;;12.00;84.50;;;;;;5089506;28;20018;-88
2022/05/04 03:24:26;;;;;;;;;;;12.10;84.30;;;;;;5075612;28;19922;-88
2022/05/04 03:26:52;;;;;;;;;;;12.00;84.00;;;;;;5075907;28;19941;-88
2022/05/04 03:29:17;;;;;;;;;;;12.00;84.20;;;;;;5075627;28;20452;-88
2022/05/04 03:31:43;;;;;;;;;;;12.00;84.40;;;;;;5075719;28;19964;-89
2022/05/04 03:34:08;;;;;;;;;;;12.00;84.10;;;;;;5075715;28;19949;-89
2022/05/04 03:36:37;;;;;;;;;;;12.10;84.00;;;;;;5075761;28;20019;-89
2022/05/04 03:39:06;;;;;;;;;;;12.00;84.30;;;;;;5075908;28;19950;-89
2022/05/04 03:41:31;;;;;;;;;;;12.10;84.10;;;;;;5075611;28;20092;-89
2022/05/04 03:43:57;;;;;;;;;;;12.10;84.20;;;;;;5075557;28;20131;-89
2022/05/04 03:46:24;;;;;;;;;;;12.10;84.30;;;;;;5075518;28;19937;-88
2022/05/04 03:48:50;;;;;;;;;;;12.00;84.40;;;;;;5075493;28;19951;-89
2022/05/04 03:51:19;;;;;;;;;;;11.90;84.40;;;;;;5075331;28;19950;-88
2022/05/04 03:53:45;;;;;;;;;;;11.90;84.90;;;;;;5075376;28;20304;-89
2022/05/04 03:56:10;;;;;;;;;;;11.90;85.20;;;;;;5075375;28;20443;-89
2022/05/04 03:58:37;;;;;;;;;;;11.80;85.10;;;;;;5075075;28;20013;-88
2022/05/04 04:01:03;;;;;;;;;;;11.80;85.10;;;;;;5075212;28;19955;-88
2022/05/04 04:03:29;;;;;;;;;;;11.60;85.20;;;;;;5075206;28;19920;-88
2022/05/04 04:05:54;;;;;;;;;;;11.40;85.80;;;;;;5075116;28;19909;-88
2022/05/04 04:08:20;;;;;;;;;;;11.20;86.70;;;;;;5075074;28;19942;-89
2022/05/04 04:10:46;;;;;;;;;;;11.20;87.10;;;;;;5074878;28;19971;-88
2022/05/04 04:13:11;;;;;;;;;;;11.30;87.40;;;;;;5074824;28;19983;-89
2022/05/04 04:15:37;;;;;;;;;;;11.30;87.70;;;;;;5074966;28;19909;-89
2022/05/04 04:18:03;;;;;;;;;;;11.30;87.60;;;;;;5074982;28;19919;-89
2022/05/04 04:23:12;;;;;;;;;;;11.40;87.50;;;;;;5075109;28;19998;-89
2022/05/04 04:25:38;;;;;;;;;;;11.50;87.40;;;;;;5074734;28;19913;-89
2022/05/04 04:28:04;;;;;;;;;;;11.60;87.10;;;;;;5074300;28;19957;-89
2022/05/04 04:30:30;;;;;;;;;;;11.60;86.80;;;;;;5074558;28;19923;-89
2022/05/04 04:32:55;;;;;;;;;;;11.60;86.80;;;;;;5074421;28;19963;-89
2022/05/04 04:35:21;;;;;;;;;;;11.60;86.90;;;;;;5073546;28;19919;-89
2022/05/04 04:37:46;;;;;;;;;;;11.50;87.00;;;;;;5074490;28;19923;-88
2022/05/04 04:40:12;;;;;;;;;;;11.60;87.20;;;;;;5074483;28;19909;-89
2022/05/04 04:42:37;;;;;;;;;;;11.70;87.20;;;;;;5074412;28;20055;-89
2022/05/04 04:45:04;;;;;;;;;;;11.80;87.00;;;;;;5074406;28;20372;-89
2022/05/04 04:47:29;;;;;;;;;;;11.90;86.90;;;;;;5074349;28;19908;-89
2022/05/04 04:49:55;;;;;;;;;;;11.90;87.00;;;;;;5074283;28;19999;-89
2022/05/04 04:52:21;;;;;;;;;;;12.00;86.90;;;;;;5074172;28;19912;-89
2022/05/04 04:54:46;;;;;;;;;;;12.00;86.70;;;;;;5074165;28;19953;-89
2022/05/04 04:57:12;;;;;;;;;;;11.90;86.40;;;;;;5079327;28;20377;-89
2022/05/04 04:59:37;;;;;;;;;;;11.70;86.80;;;;;;5082307;28;19989;-89
2022/05/04 05:02:03;;;;;;;;;;;11.70;87.30;;;;;;5090582;28;20438;-88
2022/05/04 05:04:29;;;;;;;;;;;11.80;87.90;;;;;;5094251;28;19950;-89
2022/05/04 05:06:54;;;;;;;;;;;11.80;87.80;;;;;;5087167;28;19926;-88
2022/05/04 05:09:20;;;;;;;;;;;11.80;87.90;;;;;;5089272;28;19935;-88
2022/05/04 05:11:45;;;;;;;;;;;11.80;88.10;;;;;;5085296;28;20294;-89
2022/05/04 05:16:55;;;;;;;;;;;11.90;88.10;;;;;;5093957;28;19970;-89
2022/05/04 05:19:20;;;;;;;;;;;12.00;88.30;;;;;;5092428;28;19924;-89
2022/05/04 05:21:46;;;;;;;;;;;12.20;88.30;;;;;;5092810;28;19965;-89
2022/05/04 05:24:11;;;;;;;;;;;12.40;88.10;;;;;;5077252;28;19934;-89
2022/05/04 05:26:37;;;;;;;;;;;12.50;87.70;;;;;;5073462;28;20347;-89
2022/05/04 05:29:02;;;;;;;;;;;12.60;87.30;;;;;;5079198;28;19916;-88
2022/05/04 05:31:28;;;;;;;;;;;12.80;86.90;;;;;;5088541;28;19946;-88
2022/05/04 05:33:54;;;;;;;;;;;12.90;86.70;;;;;;5084150;28;19958;-89
2022/05/04 05:36:19;;;;;;;;;;;12.90;86.40;;;;;;5072897;28;19972;-89
2022/05/04 05:38:45;;;;;;;;;;;13.00;86.20;;;;;;5069332;28;19960;-89
2022/05/04 05:41:10;;;;;;;;;;;13.00;85.90;;;;;;5071873;28;20031;-90
2022/05/04 05:43:36;;;;;;;;;;;13.10;85.50;;;;;;5088138;28;19923;-90
2022/05/04 05:46:02;;;;;;;;;;;13.30;84.90;;;;;;5079645;28;19934;-89
2022/05/04 05:48:27;;;;;;;;;;;13.40;84.30;;;;;;5076790;28;19989;-90
2022/05/04 05:50:53;;;;;;;;;;;13.60;83.90;;;;;;5091588;28;19959;-89
2022/05/04 05:53:19;;;;;;;;;;;13.70;83.50;;;;;;5073211;28;19939;-90
2022/05/04 05:55:45;;;;;;;;;;;13.80;82.60;;;;;;5070538;28;19980;-89
2022/05/04 05:58:10;;;;;;;;;;;13.90;82.60;;;;;;5074097;28;19998;-89
2022/05/04 06:00:36;;;;;;;;;;;14.00;82.60;;;;;;5084021;28;20407;-89
2022/05/04 06:03:02;;;;;;;;;;;14.10;82.60;;;;;;5067728;28;20319;-89
2022/05/04 06:05:27;;;;;;;;;;;14.20;82.60;;;;;;5067387;28;19946;-90
2022/05/04 06:07:53;;;;;;;;;;;14.30;82.30;;;;;;5070212;28;20067;-89
2022/05/04 06:10:18;;;;;;;;;;;14.40;81.70;;;;;;5068274;28;20335;-89
2022/05/04 06:12:44;;;;;;;;;;;14.50;80.30;;;;;;5072384;28;20448;-88
2022/05/04 06:15:10;;;;;;;;;;;14.60;79.50;;;;;;5069970;28;19947;-89
2022/05/04 06:17:36;;;;;;;;;;;14.80;77.00;;;;;;5071090;28;19968;-89
2022/05/04 06:20:03;;;;;;;;;;;14.90;75.30;;;;;;5070845;28;19955;-89
2022/05/04 06:22:29;;;;;;;;;;;15.00;74.70;;;;;;5081920;28;20298;-89
2022/05/04 06:24:55;;;;;;;;;;;15.10;74.70;;;;;;5077772;28;19938;-89
2022/05/04 06:27:20;;;;;;;;;;;15.10;74.50;;;;;;5069145;28;19952;-88
2022/05/04 06:35:34;;;;;;;;;;;15.50;73.40;;;;;;5044382;28;19941;-89
2022/05/04 06:37:59;;;;;;;;;;;15.70;73.00;;;;;;5068423;28;19940;-89
2022/05/04 06:40:25;;;;;;;;;;;15.80;72.70;;;;;;5069660;28;20391;-89
2022/05/04 06:42:50;;;;;;;;;;;15.90;72.40;;;;;;5069370;28;19961;-89
2022/05/04 06:45:16;;;;;;;;;;;16.00;71.30;;;;;;5070187;28;19975;-89
2022/05/04 06:47:42;;;;;;;;;;;16.10;70.50;;;;;;5071669;28;20057;-90
2022/05/04 06:50:08;;;;;;;;;;;16.30;70.70;;;;;;5078965;28;19937;-89
2022/05/04 06:52:34;;;;;;;;;;;16.30;69.80;;;;;;5083958;28;19971;-90
2022/05/04 06:54:59;;;;;;;;;;;16.50;70.00;;;;;;5069481;28;19945;-90
2022/05/04 06:57:26;;;;;;;;;;;16.50;70.40;;;;;;5067905;28;19935;-89
2022/05/04 06:59:51;;;;;;;;;;;16.60;71.80;;;;;;5103867;28;20315;-90
2022/05/04 07:02:17;;;;;;;;;;;16.70;70.40;;;;;;5081680;28;19929;-90
2022/05/04 07:04:42;;;;;;;;;;;16.80;69.00;;;;;;5074725;28;19969;-90
2022/05/04 07:07:08;;;;;;;;;;;16.90;69.40;;;;;;5078735;28;20328;-90
2022/05/04 07:09:34;;;;;;;;;;;17.00;69.60;;;;;;5072867;28;20436;-90
2022/05/04 07:11:59;;;;;;;;;;;17.10;69.70;;;;;;5072987;28;19970;-89
2022/05/04 07:14:25;;;;;;;;;;;17.30;69.80;;;;;;5072270;28;20341;-90
2022/05/04 07:16:51;;;;;;;;;;;17.30;69.80;;;;;;5075854;28;19949;-90
2022/05/04 07:19:16;;;;;;;;;;;17.40;69.30;;;;;;5071280;28;19985;-90
2022/05/04 07:21:42;;;;;;;;;;;17.60;68.80;;;;;;5074236;28;20368;-90
2022/05/04 07:24:08;;;;;;;;;;;17.80;69.00;;;;;;5075880;28;20436;-90
2022/05/04 07:26:33;;;;;;;;;;;17.80;68.70;;;;;;5071819;28;20967;-89
2022/05/04 07:28:59;;;;;;;;;;;18.00;67.80;;;;;;5073151;28;19975;-91
2022/05/04 07:31:25;;;;;;;;;;;18.10;67.60;;;;;;5079856;28;19949;-89
2022/05/04 07:33:50;;;;;;;;;;;18.20;67.50;;;;;;5058978;28;19917;-88
2022/05/04 07:36:16;;;;;;;;;;;18.30;67.00;;;;;;5076059;28;19976;-89
2022/05/04 07:38:41;;;;;;;;;;;18.40;66.70;;;;;;5075074;28;19984;-89
2022/05/04 07:43:51;;;;;;;;;;;18.70;65.30;;;;;;5073574;28;19982;-89
2022/05/04 07:46:16;;;;;;;;;;;18.90;65.00;;;;;;5079284;28;19945;-90
2022/05/04 07:48:42;;;;;;;;;;;19.00;63.90;;;;;;5074279;28;19912;-89
2022/05/04 07:51:07;;;;;;;;;;;19.20;63.10;;;;;;5079909;28;19943;-89
2022/05/04 07:53:33;;;;;;;;;;;19.30;63.20;;;;;;5076362;28;19991;-89
2022/05/04 07:56:00;;;;;;;;;;;19.20;62.80;;;;;;5078105;28;20000;-89
2022/05/04 07:58:25;;;;;;;;;;;19.30;62.70;;;;;;5073465;28;19936;-89
2022/05/04 08:06:20;;;;;;;;;;;19.60;61.00;;;;;;5072877;28;19962;-89
2022/05/04 08:08:45;;;;;;;;;;;19.80;63.40;;;;;;5071928;28;20011;-89
2022/05/04 08:11:11;;;;;;;;;;;19.90;60.30;;;;;;5071503;28;20027;-88
2022/05/04 08:13:36;;;;;;;;;;;20.00;59.60;;;;;;5071170;28;19912;-89
2022/05/04 08:16:02;;;;;;;;;;;20.00;59.90;;;;;;5074416;28;19917;-89
2022/05/04 08:18:28;;;;;;;;;;;19.90;59.30;;;;;;5075681;28;19976;-90
2022/05/04 08:20:53;;;;;;;;;;;20.00;60.10;;;;;;5071816;28;19958;-89
2022/05/04 08:23:19;;;;;;;;;;;19.90;60.10;;;;;;5073693;28;20400;-89
2022/05/04 08:25:45;;;;;;;;;;;19.90;59.80;;;;;;5073831;28;19946;-89
2022/05/04 08:28:12;;;;;;;;;;;20.00;59.30;;;;;;5075869;28;19912;-88
2022/05/04 08:30:39;;;;;;;;;;;20.10;57.50;;;;;;5083556;28;19912;-88
2022/05/04 08:33:05;;;;;;;;;;;20.30;54.40;;;;;;5081188;28;20388;-89
2022/05/04 08:35:31;;;;;;;;;;;20.30;55.30;;;;;;5075956;28;19920;-88
2022/05/04 08:37:56;;;;;;;;;;;20.40;55.10;;;;;;5073188;28;19951;-89
2022/05/04 08:40:22;;;;;;;;;;;20.50;54.80;;;;;;5072008;28;19920;-89
2022/05/04 08:42:47;;;;;;;;;;;20.60;53.50;;;;;;5071800;28;19916;-88
2022/05/04 08:45:14;;;;;;;;;;;20.80;53.70;;;;;;5071442;28;20401;-89
2022/05/04 08:47:41;;;;;;;;;;;20.80;54.00;;;;;;5076831;28;19959;-88
2022/05/04 08:50:11;;;;;;;;;;;20.90;53.50;;;;;;5076459;28;19935;-88
2022/05/04 08:52:38;;;;;;;;;;;21.00;52.40;;;;;;5074166;28;19920;-88
2022/05/04 08:55:04;;;;;;;;;;;21.10;51.70;;;;;;5069984;28;19944;-89
2022/05/04 08:57:31;;;;;;;;;;;21.20;53.60;;;;;;5064868;28;19947;-88
2022/05/04 08:59:56;;;;;;;;;;;21.30;54.80;;;;;;5070870;28;20324;-89
2022/05/04 09:02:22;;;;;;;;;;;21.40;55.60;;;;;;5080165;28;20006;-88
2022/05/04 09:04:47;;;;;;;;;;;21.50;55.90;;;;;;5071998;28;20320;-89
2022/05/04 09:07:23;;;;;;;;;;;21.70;53.10;;;;;;5076193;28;19965;-88
2022/05/04 09:09:48;;;;;;;;;;;21.70;52.80;;;;;;5076197;28;19957;-88
2022/05/04 09:12:15;;;;;;;;;;;21.80;52.90;;;;;;5073554;28;19924;-89
2022/05/04 09:14:41;;;;;;;;;;;21.80;53.30;;;;;;5070207;28;19913;-89
2022/05/04 09:17:10;;;;;;;;;;;22.00;53.20;;;;;;5074754;28;19997;-89
2022/05/04 09:19:36;;;;;;;;;;;22.20;53.60;;;;;;5076106;28;19912;-88
2022/05/04 09:22:01;;;;;;;;;;;22.30;52.20;;;;;;5073638;28;19919;-88
2022/05/04 09:24:28;;;;;;;;;;;22.50;51.00;;;;;;5069347;28;19913;-89
2022/05/04 09:26:55;;;;;;;;;;;22.60;50.40;;;;;;5075989;28;19913;-89
2022/05/04 09:29:30;;;;;;;;;;;22.70;50.90;;;;;;5078037;28;20378;-89
2022/05/04 09:31:56;;;;;;;;;;;22.80;51.10;;;;;;5071972;28;19923;-89
2022/05/04 09:34:33;;;;;;;;;;;22.90;48.20;;;;;;5081005;28;20043;-90
2022/05/04 09:45:33;;;;;;;;;;;22.80;49.00;;;;;;5066701;28;20290;-89
2022/05/04 09:47:59;;;;;;;;;;;22.50;49.30;;;;;;5069064;28;20386;-89
2022/05/04 09:50:26;;;;;;;;;;;22.40;48.90;;;;;;5066205;28;20010;-89
2022/05/04 09:52:52;;;;;;;;;;;22.20;47.60;;;;;;5066136;28;19916;-89
2022/05/04 09:55:19;;;;;;;;;;;22.00;47.80;;;;;;5080557;28;19965;-90
2022/05/04 09:57:46;;;;;;;;;;;22.20;48.60;;;;;;5079479;28;21673;-90
2022/05/04 10:00:15;;;;;;;;;;;22.30;48.50;;;;;;5076922;28;19919;-90
2022/05/04 10:02:41;;;;;;;;;;;22.50;47.90;;;;;;5072371;28;19919;-90
2022/05/04 10:05:08;;;;;;;;;;;22.60;47.20;;;;;;5077838;28;19912;-89
2022/05/04 10:07:37;;;;;;;;;;;22.70;47.30;;;;;;5074568;28;19987;-90
2022/05/04 10:10:04;;;;;;;;;;;22.80;46.60;;;;;;5075449;28;20027;-90
2022/05/04 10:12:29;;;;;;;;;;;22.80;47.00;;;;;;5109491;22;20343;-90
2022/05/04 10:14:57;;;;;;;;;;;23.00;50.40;;;;;;5113491;28;19908;-89
2022/05/04 10:17:24;;;;;;;;;;;23.20;48.80;;;;;;5113494;28;19908;-90
2022/05/04 10:19:52;;;;;;;;;;;23.40;49.30;;;;;;5112896;28;19919;-90
2022/05/04 10:22:21;;;;;;;;;;;23.60;49.00;;;;;;5113492;28;20277;-89
2022/05/04 10:24:47;;;;;;;;;;;23.80;44.90;;;;;;5113528;28;20362;-90
2022/05/04 10:27:25;;;;;;;;;;;23.80;43.30;;;;;;5113483;28;20468;-89
2022/05/04 10:33:05;;;;;;;;;;;24.00;45.40;;;;;;5093608;28;19922;-91
2022/05/04 10:35:47;;;;;;;;;;;24.00;45.50;;;;;;5097152;28;19908;-90
2022/05/04 10:38:13;;;;;;;;;;;23.80;43.20;;;;;;5097146;28;19970;-90
2022/05/04 10:40:55;;;;;;;;;;;23.60;41.40;;;;;;5097257;28;20537;-90
2022/05/04 10:43:36;;;;;;;;;;;23.50;42.00;;;;;;5097007;28;19916;-89
2022/05/04 10:46:05;;;;;;;;;;;23.70;42.80;;;;;;5096951;28;19908;-90
2022/05/04 10:48:30;;;;;;;;;;;23.80;40.80;;;;;;5097870;28;19908;-89
2022/05/04 10:51:12;;;;;;;;;;;23.90;41.60;;;;;;5117167;28;19912;-90
2022/05/04 10:53:42;;;;;;;;;;;24.00;41.00;;;;;;5117171;28;19908;-89
2022/05/04 10:56:09;;;;;;;;;;;24.10;37.50;;;;;;5117158;28;19908;-90
2022/05/04 10:58:35;;;;;;;;;;;24.20;38.70;;;;;;5115427;28;19934;-89
2022/05/04 11:01:01;;;;;;;;;;;24.10;39.80;;;;;;5096610;28;20436;-89
2022/05/04 11:03:30;;;;;;;;;;;24.10;39.90;;;;;;5096615;28;19908;-90
2022/05/04 11:05:56;;;;;;;;;;;24.20;41.00;;;;;;5096564;28;19908;-89
2022/05/04 11:08:25;;;;;;;;;;;24.30;38.50;;;;;;5096432;28;19911;-90
2022/05/04 11:10:51;;;;;;;;;;;24.10;33.70;;;;;;5096311;28;20386;-89
2022/05/04 11:13:17;;;;;;;;;;;24.20;32.20;;;;;;5096348;28;19912;-90
2022/05/04 11:15:50;;;;;;;;;;;24.30;33.10;;;;;;5096692;28;19908;-89
2022/05/04 11:18:19;;;;;;;;;;;24.50;33.70;;;;;;5096081;28;19908;-89
2022/05/04 11:20:45;;;;;;;;;;;24.70;33.20;;;;;;5116120;28;20418;-89
2022/05/04 11:23:11;;;;;;;;;;;24.70;35.20;;;;;;5116609;28;20004;-89
2022/05/04 11:25:37;;;;;;;;;;;24.60;34.00;;;;;;5116551;28;20381;-89
2022/05/04 11:28:03;;;;;;;;;;;24.40;34.80;;;;;;5116538;28;19908;-89
2022/05/04 11:30:28;;;;;;;;;;;24.30;34.80;;;;;;5115560;28;20010;-89
2022/05/04 11:32:54;;;;;;;;;;;24.30;33.20;;;;;;5108568;28;20289;-90
2022/05/04 11:35:20;;;;;;;;;;;24.50;36.70;;;;;;5114044;28;19912;-89
2022/05/04 11:37:45;;;;;;;;;;;24.70;35.30;;;;;;5114514;28;19916;-90
2022/05/04 11:40:14;;;;;;;;;;;24.70;33.90;;;;;;5110447;28;19943;-90
2022/05/04 11:42:40;;;;;;;;;;;24.90;36.00;;;;;;5113998;27;19965;-90
2022/05/04 11:45:05;;;;;;;;;;;24.90;35.40;;;;;;5108305;28;19920;-90
2022/05/04 11:47:31;;;;;;;;;;;24.80;35.00;;;;;;5113917;27;19918;-90
2022/05/04 11:49:57;;;;;;;;;;;24.50;35.70;;;;;;5120422;27;19911;-89
2022/05/04 11:52:22;;;;;;;;;;;24.50;35.90;;;;;;5117411;27;20450;-90
2022/05/04 11:54:48;;;;;;;;;;;24.40;36.00;;;;;;5112702;28;19912;-90
2022/05/04 11:57:14;;;;;;;;;;;24.60;35.50;;;;;;5113374;27;19934;-91
2022/05/04 11:59:39;;;;;;;;;;;25.00;34.70;;;;;;5114845;27;20326;-90
2022/05/04 12:02:05;;;;;;;;;;;25.70;36.40;;;;;;5113455;28;19915;-90
2022/05/04 12:04:33;;;;;;;;;;;26.50;36.30;;;;;;5112570;27;19921;-90
2022/05/04 12:06:59;;;;;;;;;;;27.00;36.40;;;;;;5110727;27;20068;-91
2022/05/04 12:09:24;;;;;;;;;;;27.70;32.80;;;;;;5114196;28;19953;-90
2022/05/04 12:11:50;;;;;;;;;;;28.30;31.10;;;;;;5114572;27;19931;-91
2022/05/04 12:14:16;;;;;;;;;;;28.40;31.40;;;;;;5113148;28;19935;-91
2022/05/04 12:16:43;;;;;;;;;;;28.20;31.60;;;;;;5115099;27;19912;-90
2022/05/04 12:19:08;;;;;;;;;;;26.90;30.40;;;;;;5112360;28;19965;-89
2022/05/04 12:21:34;;;;;;;;;;;26.50;32.40;;;;;;5113375;28;19919;-90
2022/05/04 12:24:00;;;;;;;;;;;25.70;31.00;;;;;;5112479;28;19912;-90
2022/05/04 12:26:26;;;;;;;;;;;25.60;32.50;;;;;;5111835;28;19918;-89
2022/05/04 12:34:20;;;;;;;;;;;26.00;31.50;;;;;;5112378;28;19984;-90
2022/05/04 12:36:46;;;;;;;;;;;25.70;33.20;;;;;;5111116;28;20057;-90
2022/05/04 12:39:12;;;;;;;;;;;26.00;32.10;;;;;;5110353;28;20002;-90
2022/05/04 12:41:38;;;;;;;;;;;26.30;31.40;;;;;;5111909;28;19912;-91
2022/05/04 12:44:04;;;;;;;;;;;26.90;32.10;;;;;;5112608;27;19949;-91
2022/05/04 12:46:30;;;;;;;;;;;27.80;30.80;;;;;;5111715;28;19920;-91
2022/05/04 12:48:56;;;;;;;;;;;28.50;29.50;;;;;;5108513;28;19912;-91
2022/05/04 12:51:24;;;;;;;;;;;29.50;29.50;;;;;;5112780;27;19912;-91
2022/05/04 12:53:50;;;;;;;;;;;30.40;28.10;;;;;;5109721;28;19919;-90
2022/05/04 12:59:01;;;;;;;;;;;30.90;26.00;;;;;;5112699;28;19923;-90
2022/05/04 13:01:28;;;;;;;;;;;30.70;25.60;;;;;;5108266;28;20384;-90
2022/05/04 13:03:54;;;;;;;;;;;31.20;26.00;;;;;;5115024;27;20277;-90
2022/05/04 13:06:20;;;;;;;;;;;30.40;25.60;;;;;;5115294;27;19912;-90
2022/05/04 13:08:48;;;;;;;;;;;30.70;26.00;;;;;;5112818;27;19915;-90
2022/05/04 13:11:17;;;;;;;;;;;30.80;26.30;;;;;;5113288;28;20392;-90
2022/05/04 13:13:43;;;;;;;;;;;29.70;27.40;;;;;;5116556;27;20145;-90
2022/05/04 13:16:08;;;;;;;;;;;27.70;28.70;;;;;;5114038;28;20228;-90
2022/05/04 13:18:34;;;;;;;;;;;26.20;31.80;;;;;;5112833;28;19934;-90
2022/05/04 13:20:59;;;;;;;;;;;25.40;31.90;;;;;;5111560;28;19957;-90
2022/05/04 13:23:25;;;;;;;;;;;24.90;33.60;;;;;;5115735;27;20346;-90
2022/05/04 13:25:51;;;;;;;;;;;24.90;33.30;;;;;;5112470;28;19915;-90
2022/05/04 13:28:16;;;;;;;;;;;25.60;31.60;;;;;;5112306;28;19918;-90
2022/05/04 13:30:42;;;;;;;;;;;26.80;30.60;;;;;;5111915;28;20002;-91
2022/05/04 13:33:08;;;;;;;;;;;28.50;30.00;;;;;;5113834;28;19949;-91
2022/05/04 13:35:33;;;;;;;;;;;30.30;27.00;;;;;;5113117;27;19964;-91
2022/05/04 13:37:59;;;;;;;;;;;31.80;25.90;;;;;;5134589;27;19908;-91
2022/05/04 13:40:25;;;;;;;;;;;31.70;22.40;;;;;;5110268;28;19922;-90
2022/05/04 13:42:50;;;;;;;;;;;30.20;25.00;;;;;;5113712;27;19912;-91
2022/05/04 13:45:16;;;;;;;;;;;29.90;25.00;;;;;;5111235;28;19912;-91
2022/05/04 13:47:42;;;;;;;;;;;30.10;25.80;;;;;;5117660;27;19998;-91
2022/05/04 13:53:14;;;;;;;;;;;30.30;25.20;;;;;;5118091;27;19919;-91
2022/05/04 13:53:16;;;;;;;;;;;31.10;25.30;;;;;;5110099;28;19916;-91
2022/05/04 13:55:43;;;;;;;;;;;32.40;24.70;;;;;;5111501;28;19923;-91
2022/05/04 13:58:09;;;;;;;;;;;33.60;22.70;;;;;;5111819;28;19923;-91
2022/05/04 14:00:35;;;;;;;;;;;32.90;22.60;;;;;;5113441;28;19912;-91
2022/05/04 14:03:01;;;;;;;;;;;33.20;22.50;;;;;;5120907;27;20376;-90
2022/05/04 14:05:27;;;;;;;;;;;32.70;22.20;;;;;;5117824;27;19973;-91
2022/05/04 14:07:52;;;;;;;;;;;33.10;22.50;;;;;;5117634;27;20002;-91
2022/05/04 14:10:18;;;;;;;;;;;33.30;23.90;;;;;;5115708;28;20418;-91
2022/05/04 14:12:43;;;;;;;;;;;31.70;24.30;;;;;;5117132;27;19920;-91
2022/05/04 14:15:09;;;;;;;;;;;30.70;26.40;;;;;;5112205;28;20300;-91
2022/05/04 14:17:34;;;;;;;;;;;31.10;25.60;;;;;;5110206;28;20404;-91
2022/05/04 14:20:00;;;;;;;;;;;31.90;25.00;;;;;;5112702;28;19912;-91
2022/05/04 14:22:26;;;;;;;;;;;31.90;24.90;;;;;;5111783;28;19938;-90
2022/05/04 14:24:51;;;;;;;;;;;30.50;25.90;;;;;;5112291;28;19916;-90
2022/05/04 14:27:17;;;;;;;;;;;29.60;27.90;;;;;;5110504;28;19912;-90
2022/05/04 14:29:42;;;;;;;;;;;29.80;27.20;;;;;;5110486;28;19956;-91
2022/05/04 14:32:08;;;;;;;;;;;30.50;25.80;;;;;;5108440;28;19916;-91
2022/05/04 14:34:34;;;;;;;;;;;30.40;25.10;;;;;;5109324;28;20357;-90
2022/05/04 14:36:59;;;;;;;;;;;30.80;25.90;;;;;;5109300;28;20022;-90
2022/05/04 14:39:25;;;;;;;;;;;29.70;26.90;;;;;;5119701;28;20377;-90
2022/05/04 14:41:51;;;;;;;;;;;27.90;28.40;;;;;;5122747;28;19973;-90
2022/05/04 14:44:17;;;;;;;;;;;26.50;30.90;;;;;;5117881;28;19912;-90
2022/05/04 14:46:43;;;;;;;;;;;26.20;31.60;;;;;;5110312;28;19920;-90
2022/05/04 14:49:08;;;;;;;;;;;26.10;30.90;;;;;;5108203;28;20062;-90
2022/05/04 14:51:34;;;;;;;;;;;26.30;30.90;;;;;;5108935;28;19924;-91
2022/05/04 14:53:59;;;;;;;;;;;27.00;30.40;;;;;;5112998;28;19908;-91
2022/05/04 14:56:25;;;;;;;;;;;27.40;30.70;;;;;;5112604;28;19916;-91
2022/05/04 14:58:51;;;;;;;;;;;27.60;30.30;;;;;;5120011;28;20017;-90
2022/05/04 15:01:16;;;;;;;;;;;27.50;31.40;;;;;;5109532;28;20362;-90